createdAt,value
2018-05-07T00:00:46.507Z,24.00
2018-05-07T00:03:15.130Z,18.83
2018-05-07T00:05:43.523Z,21.20
2018-05-07T00:08:11.950Z,17.10
2018-05-07T00:10:40.413Z,17.57
2018-05-07T00:13:08.815Z,18.70
2018-05-07T00:15:37.293Z,20.40
2018-05-07T00:18:05.946Z,19.13
2018-05-07T00:20:34.371Z,14.40
2018-05-07T00:23:02.760Z,17.07
2018-05-07T00:25:31.603Z,18.70
2018-05-07T00:28:00.072Z,16.70
2018-05-07T00:30:28.494Z,19.57
2018-05-07T00:32:57.244Z,23.83
2018-05-07T00:35:25.672Z,22.17
2018-05-07T00:37:54.099Z,17.43
2018-05-07T00:40:22.546Z,19.90
2018-05-07T00:42:50.969Z,20.03
2018-05-07T00:45:19.399Z,18.23
2018-05-07T00:47:48.034Z,21.27
2018-05-07T00:50:16.491Z,15.73
2018-05-07T00:52:44.893Z,18.93
2018-05-07T00:55:22.471Z,18.43
2018-05-07T00:57:50.887Z,26.87
2018-05-07T01:00:19.288Z,21.63
2018-05-07T01:02:47.738Z,23.37
2018-05-07T01:05:16.148Z,25.93
2018-05-07T01:07:44.695Z,22.57
2018-05-07T01:10:13.157Z,21.90
2018-05-07T01:12:41.601Z,21.13
2018-05-07T01:15:10.001Z,20.40
2018-05-07T01:17:38.831Z,16.83
2018-05-07T01:20:07.277Z,20.47
2018-05-07T01:22:35.719Z,17.57
2018-05-07T01:25:04.169Z,18.90
2018-05-07T01:27:32.619Z,17.73
2018-05-07T01:30:01.044Z,16.07
2018-05-07T01:32:29.833Z,21.07
2018-05-07T01:34:58.247Z,17.50
2018-05-07T01:37:26.647Z,22.10
2018-05-07T01:39:55.281Z,16.13
2018-05-07T01:42:23.720Z,18.23
2018-05-07T01:44:52.126Z,19.20
2018-05-07T01:47:21.041Z,24.67
2018-05-07T01:49:49.416Z,21.67
2018-05-07T01:52:17.819Z,21.27
2018-05-07T01:54:46.573Z,21.87
2018-05-07T01:57:14.993Z,23.90
2018-05-07T01:59:43.399Z,21.50
2018-05-07T02:02:11.848Z,21.03
2018-05-07T02:04:40.268Z,17.37
2018-05-07T02:07:08.684Z,16.53
2018-05-07T02:09:37.471Z,17.13
2018-05-07T02:12:05.907Z,14.67
2018-05-07T02:14:34.344Z,14.87
2018-05-07T02:17:02.951Z,16.03
2018-05-07T02:19:31.386Z,13.73
2018-05-07T02:21:59.871Z,14.70
2018-05-07T02:24:28.555Z,16.27
2018-05-07T02:26:56.980Z,15.70
2018-05-07T02:29:25.375Z,14.10
2018-05-07T02:31:53.827Z,15.10
2018-05-07T02:34:22.232Z,19.07
2018-05-07T02:36:50.644Z,20.17
2018-05-07T02:39:19.460Z,19.17
2018-05-07T02:41:47.856Z,15.53
2018-05-07T02:44:16.326Z,16.97
2018-05-07T02:46:45.008Z,18.17
2018-05-07T02:49:13.409Z,15.50
2018-05-07T02:51:41.799Z,14.23
2018-05-07T02:54:10.550Z,17.10
2018-05-07T02:56:38.960Z,14.57
2018-05-07T02:59:07.373Z,17.07
2018-05-07T03:01:35.990Z,14.57
2018-05-07T03:04:04.397Z,18.90
2018-05-07T03:06:32.810Z,16.23
2018-05-07T03:09:01.553Z,12.73
2018-05-07T03:11:29.991Z,14.43
2018-05-07T03:13:58.409Z,13.10
2018-05-07T03:16:27.218Z,14.07
2018-05-07T03:18:55.650Z,17.77
2018-05-07T03:21:24.063Z,11.47
2018-05-07T03:23:52.795Z,12.17
2018-05-07T03:26:21.214Z,12.43
2018-05-07T03:28:49.627Z,12.17
2018-05-07T03:31:18.411Z,12.13
2018-05-07T03:33:46.822Z,15.03
2018-05-07T03:36:15.228Z,12.87
2018-05-07T03:38:43.679Z,16.63
2018-05-07T03:41:12.107Z,13.40
2018-05-07T03:43:40.536Z,16.03
2018-05-07T03:46:09.027Z,13.43
2018-05-07T03:48:37.613Z,19.90
2018-05-07T03:51:06.014Z,20.47
2018-05-07T03:53:34.454Z,25.57
2018-05-07T03:56:02.878Z,15.33
2018-05-07T03:58:31.376Z,15.47
2018-05-07T04:00:59.827Z,23.80
2018-05-07T04:03:28.245Z,13.63
2018-05-07T04:05:56.731Z,18.50
2018-05-07T04:08:25.275Z,19.43
2018-05-07T04:10:53.707Z,25.87
2018-05-07T04:13:22.165Z,15.87
2018-05-07T04:15:50.584Z,15.47
2018-05-07T04:18:30.980Z,13.20
2018-05-07T04:21:11.296Z,15.30
2018-05-07T04:23:51.551Z,17.27
2018-05-07T04:26:19.974Z,18.20
2018-05-07T04:28:48.425Z,14.97
2018-05-07T04:31:16.851Z,22.97
2018-05-07T04:33:45.305Z,21.07
2018-05-07T04:36:13.787Z,17.70
2018-05-07T04:38:42.259Z,16.17
2018-05-07T04:41:10.730Z,13.57
2018-05-07T04:43:39.175Z,11.30
2018-05-07T04:46:07.834Z,12.73
2018-05-07T04:48:36.400Z,13.77
2018-05-07T04:51:04.839Z,12.97
2018-05-07T04:53:33.320Z,13.43
2018-05-07T04:56:01.725Z,12.93
2018-05-07T04:58:30.209Z,15.20
2018-05-07T05:00:58.622Z,12.47
2018-05-07T05:03:27.067Z,13.13
2018-05-07T05:05:55.459Z,13.97
2018-05-07T05:08:23.867Z,9.17
2018-05-07T05:10:52.316Z,16.00
2018-05-07T05:13:20.751Z,13.23
2018-05-07T05:15:49.136Z,10.67
2018-05-07T05:18:17.582Z,11.27
2018-05-07T05:20:46.024Z,10.37
2018-05-07T05:23:14.471Z,16.27
2018-05-07T05:25:42.872Z,9.23
2018-05-07T05:28:11.340Z,16.13
2018-05-07T05:30:39.763Z,14.17
2018-05-07T05:33:08.221Z,12.70
2018-05-07T05:35:36.674Z,10.23
2018-05-07T05:38:05.148Z,11.77
2018-05-07T05:40:33.544Z,11.93
2018-05-07T05:43:01.977Z,9.93
2018-05-07T05:45:30.415Z,12.50
2018-05-07T05:47:58.816Z,17.43
2018-05-07T05:50:27.319Z,12.53
2018-05-07T05:52:55.850Z,15.33
2018-05-07T05:55:24.392Z,12.67
2018-05-07T05:57:52.791Z,10.60
2018-05-07T06:00:21.215Z,12.67
2018-05-07T06:02:49.654Z,17.80
2018-05-07T06:05:18.092Z,14.57
2018-05-07T06:07:46.511Z,12.10
2018-05-07T06:10:15.022Z,14.93
2018-05-07T06:12:43.471Z,11.80
2018-05-07T06:15:11.898Z,13.53
2018-05-07T06:17:40.352Z,13.87
2018-05-07T06:20:08.788Z,13.37
2018-05-07T06:22:37.244Z,14.73
2018-05-07T06:25:05.655Z,10.53
2018-05-07T06:27:34.115Z,10.23
2018-05-07T06:30:02.555Z,16.43
2018-05-07T06:32:31.005Z,10.53
2018-05-07T06:34:59.424Z,12.97
2018-05-07T06:37:27.884Z,20.33
2018-05-07T06:39:56.328Z,14.20
2018-05-07T06:42:24.746Z,11.43
2018-05-07T06:44:53.174Z,17.13
2018-05-07T06:47:21.650Z,13.90
2018-05-07T06:49:50.117Z,15.07
2018-05-07T06:52:18.573Z,10.47
2018-05-07T06:54:47.021Z,8.67
2018-05-07T06:57:15.549Z,9.57
2018-05-07T06:59:44.115Z,10.70
2018-05-07T07:02:12.719Z,11.83
2018-05-07T07:04:41.055Z,8.67
2018-05-07T07:07:09.503Z,11.20
2018-05-07T07:09:37.893Z,8.43
2018-05-07T07:12:06.363Z,10.20
2018-05-07T07:14:34.771Z,9.67
2018-05-07T07:17:03.310Z,11.33
2018-05-07T07:19:31.814Z,9.63
2018-05-07T07:22:00.209Z,8.30
2018-05-07T07:24:28.647Z,6.27
2018-05-07T07:26:57.052Z,5.93
2018-05-07T07:29:25.438Z,7.23
2018-05-07T07:31:53.847Z,6.93
2018-05-07T07:34:22.267Z,11.33
2018-05-07T07:36:50.719Z,7.33
2018-05-07T07:39:19.138Z,15.63
2018-05-07T07:41:47.579Z,7.27
2018-05-07T07:44:16.032Z,10.37
2018-05-07T07:46:44.461Z,8.07
2018-05-07T07:49:12.896Z,13.43
2018-05-07T07:51:41.367Z,9.30
2018-05-07T07:54:09.843Z,12.37
2018-05-07T07:56:38.235Z,10.50
2018-05-07T07:59:06.635Z,8.17
2018-05-07T08:01:35.100Z,7.83
2018-05-07T08:04:03.489Z,6.13
2018-05-07T08:06:31.971Z,6.63
2018-05-07T08:09:00.391Z,11.63
2018-05-07T08:11:28.779Z,7.30
2018-05-07T08:13:57.244Z,7.70
2018-05-07T08:16:25.660Z,11.60
2018-05-07T08:18:54.139Z,14.23
2018-05-07T08:21:22.620Z,11.10
2018-05-07T08:23:51.057Z,8.80
2018-05-07T08:26:19.469Z,7.30
2018-05-07T08:28:47.911Z,8.33
2018-05-07T08:31:16.451Z,8.57
2018-05-07T08:33:44.892Z,9.73
2018-05-07T08:36:13.307Z,15.30
2018-05-07T08:38:41.755Z,9.10
2018-05-07T08:41:10.166Z,11.23
2018-05-07T08:43:38.623Z,9.80
2018-05-07T08:46:07.018Z,9.00
2018-05-07T08:48:35.580Z,10.80
2018-05-07T08:51:04.499Z,7.77
2018-05-07T08:53:32.904Z,27.83
2018-05-07T08:56:01.431Z,13.77
2018-05-07T08:58:29.873Z,15.70
2018-05-07T09:00:58.414Z,7.87
2018-05-07T09:03:27.048Z,9.80
2018-05-07T09:05:55.475Z,5.80
2018-05-07T09:08:23.889Z,6.50
2018-05-07T09:10:52.343Z,6.90
2018-05-07T09:13:20.743Z,7.00
2018-05-07T09:15:49.211Z,12.83
2018-05-07T09:18:17.679Z,9.77
2018-05-07T09:20:46.109Z,7.63
2018-05-07T09:23:14.655Z,11.10
2018-05-07T09:25:43.037Z,12.63
2018-05-07T09:28:11.452Z,10.23
2018-05-07T09:30:39.932Z,7.80
2018-05-07T09:33:08.329Z,26.60
2018-05-07T09:35:36.763Z,12.23
2018-05-07T09:38:05.200Z,8.17
2018-05-07T09:40:33.601Z,13.23
2018-05-07T09:43:02.125Z,6.90
2018-05-07T09:45:30.466Z,15.33
2018-05-07T09:47:58.906Z,9.30
2018-05-07T09:50:27.325Z,7.07
2018-05-07T09:52:55.881Z,14.07
2018-05-07T09:55:24.348Z,11.20
2018-05-07T09:58:02.568Z,12.47
2018-05-07T10:00:37.496Z,9.20
2018-05-07T10:03:05.952Z,13.60
2018-05-07T10:05:34.785Z,11.30
2018-05-07T10:08:03.243Z,16.70
2018-05-07T10:10:31.644Z,10.43
2018-05-07T10:13:00.099Z,9.70
2018-05-07T10:15:28.536Z,6.97
2018-05-07T10:17:56.969Z,16.43
2018-05-07T10:20:25.569Z,11.23
2018-05-07T10:22:54.007Z,6.40
2018-05-07T10:25:22.433Z,5.43
2018-05-07T10:27:50.866Z,7.80
2018-05-07T10:30:19.253Z,7.87
2018-05-07T10:32:47.696Z,48.67
2018-05-07T10:35:16.152Z,92.67
2018-05-07T10:37:44.596Z,117.53
2018-05-07T10:40:13.019Z,51.33
2018-05-07T10:42:41.486Z,28.60
2018-05-07T10:45:09.884Z,104.17
2018-05-07T10:47:38.432Z,105.60
2018-05-07T10:50:06.989Z,83.00
2018-05-07T10:52:35.415Z,78.30
2018-05-07T10:55:03.895Z,105.77
2018-05-07T10:57:32.316Z,94.13
2018-05-07T11:00:00.915Z,62.63
2018-05-07T11:02:29.362Z,94.37
2018-05-07T11:04:57.811Z,69.30
2018-05-07T11:07:26.376Z,49.10
2018-05-07T11:09:54.681Z,28.10
2018-05-07T11:12:23.079Z,35.67
2018-05-07T11:14:51.532Z,48.00
2018-05-07T11:17:19.931Z,68.83
2018-05-07T11:19:48.370Z,95.83
2018-05-07T11:22:16.830Z,111.57
2018-05-07T11:24:45.331Z,100.77
2018-05-07T11:27:13.794Z,112.07
2018-05-07T11:29:42.285Z,66.07
2018-05-07T11:32:10.725Z,101.87
2018-05-07T11:34:39.155Z,96.83
2018-05-07T11:37:11.979Z,110.50
2018-05-07T11:39:42.762Z,72.10
2018-05-07T11:42:12.111Z,108.27
2018-05-07T11:44:40.774Z,94.60
2018-05-07T11:47:09.330Z,99.00
2018-05-07T11:49:37.727Z,98.30
2018-05-07T11:52:06.203Z,97.27
2018-05-07T11:54:34.675Z,33.33
2018-05-07T11:57:03.171Z,87.13
2018-05-07T11:59:31.608Z,91.17
2018-05-07T12:02:00.018Z,67.27
2018-05-07T12:04:28.570Z,11.00
2018-05-07T12:06:57.145Z,17.67
2018-05-07T12:09:25.727Z,47.83
2018-05-07T12:11:54.127Z,61.83
2018-05-07T12:14:22.608Z,75.33
2018-05-07T12:16:51.033Z,45.60
2018-05-07T12:19:19.442Z,51.87
2018-05-07T12:21:48.154Z,12.73
2018-05-07T12:24:16.556Z,17.97
2018-05-07T12:26:45.020Z,16.23
2018-05-07T12:29:13.390Z,13.13
2018-05-07T12:31:41.904Z,13.33
2018-05-07T12:34:10.435Z,11.20
2018-05-07T12:36:38.907Z,14.17
2018-05-07T12:39:07.307Z,12.47
2018-05-07T12:41:35.719Z,8.70
2018-05-07T12:44:04.184Z,12.27
2018-05-07T12:46:32.571Z,12.87
2018-05-07T12:49:01.034Z,12.07
2018-05-07T12:51:29.443Z,11.03
2018-05-07T12:53:57.883Z,9.80
2018-05-07T12:56:26.396Z,12.40
2018-05-07T12:58:54.877Z,13.40
2018-05-07T13:01:23.297Z,9.90
2018-05-07T13:03:51.721Z,13.80
2018-05-07T13:06:20.168Z,7.75
2018-05-07T13:08:48.567Z,8.00
2018-05-07T13:11:16.959Z,11.90
2018-05-07T13:13:45.411Z,19.40
2018-05-07T13:16:13.831Z,10.55
2018-05-07T13:18:42.326Z,16.30
2018-05-07T13:21:10.775Z,10.77
2018-05-07T13:23:39.191Z,13.65
2018-05-07T13:26:07.950Z,8.60
2018-05-07T13:28:36.362Z,12.02
2018-05-07T13:31:04.795Z,15.43
2018-05-07T13:33:33.223Z,16.77
2018-05-07T13:36:01.663Z,9.07
2018-05-07T13:38:30.069Z,8.75
2018-05-07T13:40:58.540Z,13.05
2018-05-07T13:43:26.963Z,11.32
2018-05-07T13:45:55.417Z,15.50
2018-05-07T13:48:23.945Z,10.48
2018-05-07T13:50:52.369Z,13.48
2018-05-07T13:53:20.787Z,13.55
2018-05-07T13:55:49.202Z,16.45
2018-05-07T13:58:17.713Z,7.40
2018-05-07T14:00:46.156Z,28.60
2018-05-07T14:03:14.814Z,13.05
2018-05-07T14:05:43.261Z,11.18
2018-05-07T14:08:11.748Z,11.45
2018-05-07T14:10:40.340Z,11.25
2018-05-07T14:13:08.755Z,18.67
2018-05-07T14:15:37.187Z,13.07
2018-05-07T14:18:05.605Z,10.23
2018-05-07T14:20:34.098Z,8.88
2018-05-07T14:23:02.491Z,8.95
2018-05-07T14:25:30.971Z,8.77
2018-05-07T14:27:59.353Z,8.85
2018-05-07T14:30:27.885Z,14.68
2018-05-07T14:32:56.371Z,8.65
2018-05-07T14:35:24.827Z,12.57
2018-05-07T14:37:53.542Z,18.17
2018-05-07T14:40:22.239Z,12.30
2018-05-07T14:42:50.674Z,10.40
2018-05-07T14:45:19.165Z,14.87
2018-05-07T14:47:48.005Z,13.43
2018-05-07T14:50:16.476Z,10.85
2018-05-07T14:52:44.875Z,11.18
2018-05-07T14:55:13.651Z,13.18
2018-05-07T14:57:42.086Z,16.85
2018-05-07T15:00:10.494Z,10.25
2018-05-07T15:02:39.408Z,9.63
2018-05-07T15:05:07.836Z,7.18
2018-05-07T15:07:36.223Z,18.83
2018-05-07T15:10:04.989Z,11.77
2018-05-07T15:12:33.470Z,12.25
2018-05-07T15:15:01.895Z,13.62
2018-05-07T15:17:30.612Z,9.73
2018-05-07T15:19:59.069Z,13.40
2018-05-07T15:22:27.486Z,14.48
2018-05-07T15:24:56.243Z,14.07
2018-05-07T15:27:24.632Z,6.97
2018-05-07T15:29:53.060Z,16.27
2018-05-07T15:32:21.492Z,19.33
2018-05-07T15:34:49.978Z,17.33
2018-05-07T15:37:18.388Z,11.50
2018-05-07T15:39:46.792Z,8.43
2018-05-07T15:42:15.514Z,21.05
2018-05-07T15:44:43.900Z,12.02
2018-05-07T15:47:12.446Z,15.93
2018-05-07T15:49:41.237Z,15.13
2018-05-07T15:52:09.742Z,19.80
2018-05-07T15:54:38.175Z,26.25
2018-05-07T15:57:07.959Z,23.30
2018-05-07T15:59:36.391Z,20.83
2018-05-07T16:02:04.876Z,16.62
2018-05-07T16:04:33.325Z,16.77
2018-05-07T16:07:01.751Z,20.48
2018-05-07T16:09:30.143Z,11.10
2018-05-07T16:11:58.938Z,9.37
2018-05-07T16:14:27.389Z,10.50
2018-05-07T16:16:55.829Z,10.97
2018-05-07T16:19:24.615Z,13.40
2018-05-07T16:21:53.119Z,17.83
2018-05-07T16:24:21.553Z,11.07
2018-05-07T16:26:50.076Z,11.23
2018-05-07T16:29:18.547Z,9.00
2018-05-07T16:31:46.979Z,7.90
2018-05-07T16:34:15.416Z,9.47
2018-05-07T16:36:43.889Z,12.40
2018-05-07T16:39:12.436Z,11.27
2018-05-07T16:41:40.832Z,10.83
2018-05-07T16:44:09.435Z,10.17
2018-05-07T16:46:37.836Z,10.77
2018-05-07T16:49:06.375Z,8.33
2018-05-07T16:51:34.724Z,14.57
2018-05-07T16:54:03.097Z,9.07
2018-05-07T16:56:31.576Z,9.10
2018-05-07T16:59:00.028Z,11.37
2018-05-07T17:01:28.471Z,11.43
2018-05-07T17:03:56.923Z,15.17
2018-05-07T17:06:25.379Z,9.33
2018-05-07T17:08:53.837Z,10.93
2018-05-07T17:11:22.210Z,8.77
2018-05-07T17:13:50.768Z,13.93
2018-05-07T17:16:19.180Z,16.13
2018-05-07T17:18:47.571Z,11.03
2018-05-07T17:21:16.160Z,21.27
2018-05-07T17:23:44.605Z,16.07
2018-05-07T17:26:13.012Z,10.37
2018-05-07T17:28:41.482Z,11.97
2018-05-07T17:31:09.971Z,12.53
2018-05-07T17:33:38.458Z,11.00
2018-05-07T17:36:06.872Z,10.37
2018-05-07T17:38:35.305Z,11.27
2018-05-07T17:41:03.736Z,19.97
2018-05-07T17:43:32.135Z,54.83
2018-05-07T17:46:12.504Z,36.47
2018-05-07T17:48:52.821Z,32.97
2018-05-07T17:51:21.294Z,38.20
2018-05-07T17:53:49.804Z,30.40
2018-05-07T17:56:18.207Z,21.23
2018-05-07T17:58:46.679Z,16.10
2018-05-07T18:01:15.224Z,17.73
2018-05-07T18:03:44.975Z,21.47
2018-05-07T18:06:13.543Z,21.87
2018-05-07T18:08:41.953Z,12.00
2018-05-07T18:11:11.198Z,21.10
2018-05-07T18:13:39.717Z,21.83
2018-05-07T18:16:08.146Z,17.93
2018-05-07T18:18:36.560Z,12.97
2018-05-07T18:21:05.094Z,15.70
2018-05-07T18:23:33.560Z,14.27
2018-05-07T18:26:02.180Z,20.00
2018-05-07T18:28:30.556Z,18.00
2018-05-07T18:30:58.990Z,11.53
2018-05-07T18:33:27.416Z,13.67
2018-05-07T18:35:55.825Z,16.17
2018-05-07T18:38:24.466Z,23.00
2018-05-07T18:40:52.993Z,15.40
2018-05-07T18:43:21.460Z,13.77
2018-05-07T18:45:49.999Z,13.63
2018-05-07T18:48:18.722Z,17.27
2018-05-07T18:50:47.160Z,20.30
2018-05-07T18:53:16.315Z,15.47
2018-05-07T18:55:44.899Z,18.90
2018-05-07T18:58:14.180Z,26.73
2018-05-07T19:00:42.599Z,16.60
2018-05-07T19:03:11.104Z,21.67
2018-05-07T19:05:39.512Z,20.80
2018-05-07T19:08:07.926Z,22.80
2018-05-07T19:10:36.407Z,23.27
2018-05-07T19:13:04.845Z,21.23
2018-05-07T19:15:33.285Z,26.03
2018-05-07T19:18:02.848Z,22.93
2018-05-07T19:20:31.270Z,28.03
2018-05-07T19:22:59.743Z,24.87
2018-05-07T19:25:28.234Z,21.87
2018-05-07T19:27:56.788Z,27.33
2018-05-07T19:30:25.199Z,17.67
2018-05-07T19:32:53.604Z,16.17
2018-05-07T19:35:22.111Z,20.17
2018-05-07T19:37:50.628Z,31.43
2018-05-07T19:40:19.092Z,21.13
2018-05-07T19:42:47.546Z,16.43
2018-05-07T19:45:16.004Z,24.00
2018-05-07T19:47:44.409Z,26.23
2018-05-07T19:50:12.867Z,16.93
2018-05-07T19:52:41.401Z,19.40
2018-05-07T19:55:10.007Z,18.10
2018-05-07T19:57:38.477Z,23.80
2018-05-07T20:00:06.941Z,24.60
2018-05-07T20:02:35.347Z,20.70
2018-05-07T20:05:03.763Z,16.70
2018-05-07T20:07:32.594Z,17.87
2018-05-07T20:10:01.102Z,20.37
2018-05-07T20:12:29.655Z,23.40
2018-05-07T20:14:58.059Z,16.03
2018-05-07T20:17:26.510Z,16.93
2018-05-07T20:19:54.990Z,21.00
2018-05-07T20:22:23.548Z,12.70
2018-05-07T20:24:51.994Z,19.70
2018-05-07T20:27:20.456Z,21.20
2018-05-07T20:29:48.881Z,15.00
2018-05-07T20:32:17.405Z,17.23
2018-05-07T20:34:45.812Z,14.57
2018-05-07T20:37:14.228Z,23.23
2018-05-07T20:39:42.725Z,15.17
2018-05-07T20:42:11.101Z,16.67
2018-05-07T20:44:39.555Z,30.90
2018-05-07T20:47:08.014Z,23.23
2018-05-07T20:49:36.453Z,20.73
2018-05-07T20:52:05.096Z,16.53
2018-05-07T20:54:33.508Z,37.13
2018-05-07T20:57:01.963Z,41.67
2018-05-07T20:59:30.402Z,21.33
2018-05-07T21:01:58.902Z,19.87
2018-05-07T21:04:27.364Z,26.90
2018-05-07T21:06:55.813Z,17.43
2018-05-07T21:09:24.260Z,13.83
2018-05-07T21:11:52.718Z,21.00
2018-05-07T21:14:21.165Z,16.10
2018-05-07T21:16:49.577Z,15.07
2018-05-07T21:19:18.055Z,26.20
2018-05-07T21:21:46.495Z,18.57
2018-05-07T21:24:14.896Z,16.20
2018-05-07T21:26:43.384Z,23.07
2018-05-07T21:29:11.805Z,13.00
2018-05-07T21:31:40.258Z,19.63
2018-05-07T21:34:08.672Z,16.90
2018-05-07T21:36:37.128Z,16.53
2018-05-07T21:39:05.562Z,17.83
2018-05-07T21:41:34.054Z,17.43
2018-05-07T21:44:02.439Z,13.93
2018-05-07T21:46:30.928Z,15.47
2018-05-07T21:48:59.367Z,19.57
2018-05-07T21:51:27.836Z,15.23
2018-05-07T21:53:56.233Z,17.37
2018-05-07T21:56:24.715Z,14.43
2018-05-07T21:58:53.159Z,15.80
2018-05-07T22:01:21.599Z,12.13
2018-05-07T22:03:49.999Z,12.93
2018-05-07T22:06:18.421Z,16.33
2018-05-07T22:08:46.813Z,13.03
2018-05-07T22:11:15.241Z,15.77
2018-05-07T22:13:45.623Z,15.03
2018-05-07T22:16:14.069Z,15.30
2018-05-07T22:18:42.477Z,13.97
2018-05-07T22:21:10.925Z,15.57
2018-05-07T22:23:39.379Z,15.50
2018-05-07T22:26:07.843Z,15.27
2018-05-07T22:28:36.219Z,11.60
2018-05-07T22:31:04.668Z,17.53
2018-05-07T22:33:33.115Z,16.47
2018-05-07T22:36:01.560Z,15.07
2018-05-07T22:38:30.002Z,15.00
2018-05-07T22:40:58.424Z,15.63
2018-05-07T22:43:26.888Z,21.60
2018-05-07T22:45:55.435Z,22.37
2018-05-07T22:48:23.895Z,23.27
2018-05-07T22:50:52.366Z,16.40
2018-05-07T22:53:20.740Z,18.70
2018-05-07T22:55:49.248Z,18.30
2018-05-07T22:58:17.660Z,12.97
2018-05-07T23:00:46.111Z,12.83
2018-05-07T23:03:14.593Z,12.33
2018-05-07T23:05:43.023Z,13.27
2018-05-07T23:08:11.495Z,14.27
2018-05-07T23:10:39.962Z,9.63
2018-05-07T23:13:08.359Z,18.83
2018-05-07T23:15:36.803Z,9.87
2018-05-07T23:18:05.211Z,13.37
2018-05-07T23:20:33.668Z,9.80
2018-05-07T23:23:02.140Z,11.03
2018-05-07T23:25:30.564Z,13.17
2018-05-07T23:27:58.997Z,16.10
2018-05-07T23:30:27.396Z,9.00
2018-05-07T23:32:55.895Z,10.30
2018-05-07T23:35:24.306Z,12.43
2018-05-07T23:37:52.747Z,10.53
2018-05-07T23:40:21.179Z,10.70
2018-05-07T23:42:49.637Z,10.03
2018-05-07T23:45:18.122Z,10.43
2018-05-07T23:47:46.579Z,9.97
2018-05-07T23:50:14.984Z,16.07
2018-05-07T23:52:43.425Z,12.90
2018-05-07T23:55:11.810Z,15.43
2018-05-07T23:57:40.239Z,14.33
